sensor_id;sensor_type;location;lat;lon;timestamp;P1;durP1;ratioP1;P2;durP2;ratioP2
42168;SDS011;27838;43.858;25.974;2022-12-20T00:01:07;37.72;;;18.08;;
42168;SDS011;27838;43.858;25.974;2022-12-20T00:03:38;39.15;;;19.13;;
42168;SDS011;27838;43.858;25.974;2022-12-20T00:06:04;37.28;;;17.05;;
42168;SDS011;27838;43.858;25.974;2022-12-20T00:08:31;36.80;;;18.13;;
42168;SDS011;27838;43.858;25.974;2022-12-20T00:10:59;41.47;;;19.08;;
42168;SDS011;27838;43.858;25.974;2022-12-20T00:13:27;39.47;;;18.67;;
42168;SDS011;27838;43.858;25.974;2022-12-20T00:16:10;38.10;;;18.67;;
42168;SDS011;27838;43.858;25.974;2022-12-20T00:18:38;40.80;;;19.05;;
42168;SDS011;27838;43.858;25.974;2022-12-20T00:21:07;35.55;;;18.38;;
42168;SDS011;27838;43.858;25.974;2022-12-20T00:23:36;46.85;;;19.83;;
42168;SDS011;27838;43.858;25.974;2022-12-20T00:26:04;37.50;;;17.65;;
42168;SDS011;27838;43.858;25.974;2022-12-20T00:28:33;36.17;;;17.05;;
42168;SDS011;27838;43.858;25.974;2022-12-20T00:31:01;38.67;;;18.60;;
42168;SDS011;27838;43.858;25.974;2022-12-20T00:33:28;42.75;;;18.17;;
42168;SDS011;27838;43.858;25.974;2022-12-20T00:35:55;37.45;;;18.00;;
42168;SDS011;27838;43.858;25.974;2022-12-20T00:38:23;42.40;;;19.95;;
42168;SDS011;27838;43.858;25.974;2022-12-20T00:41:13;38.13;;;18.35;;
42168;SDS011;27838;43.858;25.974;2022-12-20T00:43:38;39.30;;;18.13;;
42168;SDS011;27838;43.858;25.974;2022-12-20T00:46:06;36.10;;;18.88;;
42168;SDS011;27838;43.858;25.974;2022-12-20T00:48:34;40.38;;;18.80;;
42168;SDS011;27838;43.858;25.974;2022-12-20T00:51:05;45.55;;;20.75;;
42168;SDS011;27838;43.858;25.974;2022-12-20T00:53:34;40.25;;;19.70;;
42168;SDS011;27838;43.858;25.974;2022-12-20T00:56:02;40.10;;;20.38;;
42168;SDS011;27838;43.858;25.974;2022-12-20T00:58:30;41.92;;;19.35;;
42168;SDS011;27838;43.858;25.974;2022-12-20T01:00:58;38.88;;;19.08;;
42168;SDS011;27838;43.858;25.974;2022-12-20T01:03:24;41.58;;;19.17;;
42168;SDS011;27838;43.858;25.974;2022-12-20T01:05:52;38.45;;;19.13;;
42168;SDS011;27838;43.858;25.974;2022-12-20T01:08:23;36.95;;;18.63;;
42168;SDS011;27838;43.858;25.974;2022-12-20T01:11:00;40.92;;;19.40;;
42168;SDS011;27838;43.858;25.974;2022-12-20T01:13:30;40.28;;;19.65;;
42168;SDS011;27838;43.858;25.974;2022-12-20T01:16:05;32.35;;;17.95;;
42168;SDS011;27838;43.858;25.974;2022-12-20T01:18:32;44.70;;;19.58;;
42168;SDS011;27838;43.858;25.974;2022-12-20T01:21:02;35.10;;;18.42;;
42168;SDS011;27838;43.858;25.974;2022-12-20T01:23:30;34.35;;;17.90;;
42168;SDS011;27838;43.858;25.974;2022-12-20T01:26:00;45.55;;;19.25;;
42168;SDS011;27838;43.858;25.974;2022-12-20T01:28:29;42.25;;;18.83;;
42168;SDS011;27838;43.858;25.974;2022-12-20T01:30:57;41.17;;;18.23;;
42168;SDS011;27838;43.858;25.974;2022-12-20T01:33:24;36.47;;;18.75;;
42168;SDS011;27838;43.858;25.974;2022-12-20T01:35:57;39.70;;;19.70;;
42168;SDS011;27838;43.858;25.974;2022-12-20T01:38:25;37.42;;;18.85;;
42168;SDS011;27838;43.858;25.974;2022-12-20T01:40:53;35.13;;;19.05;;
42168;SDS011;27838;43.858;25.974;2022-12-20T01:43:21;35.83;;;18.30;;
42168;SDS011;27838;43.858;25.974;2022-12-20T01:45:49;39.00;;;19.33;;
42168;SDS011;27838;43.858;25.974;2022-12-20T01:48:20;37.85;;;18.23;;
42168;SDS011;27838;43.858;25.974;2022-12-20T01:50:50;41.03;;;18.60;;
42168;SDS011;27838;43.858;25.974;2022-12-20T01:53:19;37.97;;;18.63;;
42168;SDS011;27838;43.858;25.974;2022-12-20T01:55:47;38.92;;;20.17;;
42168;SDS011;27838;43.858;25.974;2022-12-20T01:58:15;35.83;;;18.30;;
42168;SDS011;27838;43.858;25.974;2022-12-20T02:00:43;38.28;;;19.15;;
42168;SDS011;27838;43.858;25.974;2022-12-20T02:03:11;38.17;;;18.38;;
42168;SDS011;27838;43.858;25.974;2022-12-20T02:05:40;37.17;;;18.13;;
42168;SDS011;27838;43.858;25.974;2022-12-20T02:08:09;37.17;;;17.75;;
42168;SDS011;27838;43.858;25.974;2022-12-20T02:10:45;42.10;;;20.17;;
42168;SDS011;27838;43.858;25.974;2022-12-20T02:16:08;36.75;;;19.17;;
42168;SDS011;27838;43.858;25.974;2022-12-20T02:18:44;42.38;;;19.27;;
42168;SDS011;27838;43.858;25.974;2022-12-20T02:31:56;41.17;;;19.70;;
42168;SDS011;27838;43.858;25.974;2022-12-20T02:34:45;35.75;;;18.75;;
42168;SDS011;27838;43.858;25.974;2022-12-20T02:37:12;35.17;;;17.75;;
42168;SDS011;27838;43.858;25.974;2022-12-20T02:39:39;38.70;;;19.45;;
42168;SDS011;27838;43.858;25.974;2022-12-20T02:42:18;45.92;;;21.17;;
42168;SDS011;27838;43.858;25.974;2022-12-20T02:44:53;41.22;;;19.88;;
42168;SDS011;27838;43.858;25.974;2022-12-20T02:50:41;43.00;;;18.05;;
42168;SDS011;27838;43.858;25.974;2022-12-20T02:53:15;44.13;;;18.73;;
42168;SDS011;27838;43.858;25.974;2022-12-20T03:01:06;43.97;;;19.67;;
42168;SDS011;27838;43.858;25.974;2022-12-20T03:03:36;41.53;;;18.70;;
42168;SDS011;27838;43.858;25.974;2022-12-20T03:06:03;40.50;;;19.58;;
42168;SDS011;27838;43.858;25.974;2022-12-20T03:08:30;40.75;;;19.73;;
42168;SDS011;27838;43.858;25.974;2022-12-20T03:10:56;48.20;;;21.15;;
42168;SDS011;27838;43.858;25.974;2022-12-20T03:13:23;39.05;;;18.92;;
42168;SDS011;27838;43.858;25.974;2022-12-20T03:15:50;42.53;;;21.35;;
42168;SDS011;27838;43.858;25.974;2022-12-20T03:18:17;60.80;;;28.42;;
42168;SDS011;27838;43.858;25.974;2022-12-20T03:20:43;45.03;;;22.05;;
42168;SDS011;27838;43.858;25.974;2022-12-20T03:23:10;42.58;;;20.77;;
42168;SDS011;27838;43.858;25.974;2022-12-20T03:25:36;41.55;;;19.35;;
42168;SDS011;27838;43.858;25.974;2022-12-20T03:28:03;48.72;;;20.98;;
42168;SDS011;27838;43.858;25.974;2022-12-20T03:30:30;38.78;;;19.63;;
42168;SDS011;27838;43.858;25.974;2022-12-20T03:32:56;43.65;;;19.92;;
42168;SDS011;27838;43.858;25.974;2022-12-20T03:35:23;43.17;;;21.30;;
42168;SDS011;27838;43.858;25.974;2022-12-20T03:37:49;57.28;;;24.27;;
42168;SDS011;27838;43.858;25.974;2022-12-20T03:40:16;43.65;;;19.95;;
42168;SDS011;27838;43.858;25.974;2022-12-20T03:42:42;44.78;;;19.65;;
42168;SDS011;27838;43.858;25.974;2022-12-20T03:45:09;44.15;;;20.05;;
42168;SDS011;27838;43.858;25.974;2022-12-20T03:47:36;37.45;;;19.75;;
42168;SDS011;27838;43.858;25.974;2022-12-20T03:50:03;45.50;;;20.58;;
42168;SDS011;27838;43.858;25.974;2022-12-20T03:52:31;42.88;;;21.65;;
42168;SDS011;27838;43.858;25.974;2022-12-20T03:54:58;45.80;;;20.75;;
42168;SDS011;27838;43.858;25.974;2022-12-20T03:57:24;42.95;;;21.55;;
42168;SDS011;27838;43.858;25.974;2022-12-20T03:59:51;46.28;;;20.05;;
42168;SDS011;27838;43.858;25.974;2022-12-20T04:02:18;44.97;;;21.13;;
42168;SDS011;27838;43.858;25.974;2022-12-20T04:04:45;50.47;;;21.25;;
42168;SDS011;27838;43.858;25.974;2022-12-20T04:07:12;39.80;;;20.08;;
42168;SDS011;27838;43.858;25.974;2022-12-20T04:09:38;44.30;;;19.90;;
42168;SDS011;27838;43.858;25.974;2022-12-20T04:12:05;51.97;;;21.48;;
42168;SDS011;27838;43.858;25.974;2022-12-20T04:14:32;38.92;;;20.23;;
42168;SDS011;27838;43.858;25.974;2022-12-20T04:16:59;43.75;;;20.95;;
42168;SDS011;27838;43.858;25.974;2022-12-20T04:19:26;44.67;;;19.80;;
42168;SDS011;27838;43.858;25.974;2022-12-20T04:21:52;44.85;;;20.75;;
42168;SDS011;27838;43.858;25.974;2022-12-20T04:24:22;48.70;;;21.33;;
42168;SDS011;27838;43.858;25.974;2022-12-20T04:26:49;39.40;;;18.92;;
42168;SDS011;27838;43.858;25.974;2022-12-20T04:29:15;47.47;;;20.02;;
42168;SDS011;27838;43.858;25.974;2022-12-20T04:31:42;53.60;;;21.08;;
42168;SDS011;27838;43.858;25.974;2022-12-20T04:34:08;44.00;;;21.13;;
42168;SDS011;27838;43.858;25.974;2022-12-20T04:36:35;40.35;;;19.88;;
42168;SDS011;27838;43.858;25.974;2022-12-20T04:39:01;48.08;;;21.35;;
42168;SDS011;27838;43.858;25.974;2022-12-20T04:41:28;44.83;;;21.63;;
42168;SDS011;27838;43.858;25.974;2022-12-20T04:43:55;44.63;;;19.70;;
42168;SDS011;27838;43.858;25.974;2022-12-20T04:46:23;42.35;;;20.15;;
42168;SDS011;27838;43.858;25.974;2022-12-20T04:48:51;42.88;;;20.27;;
42168;SDS011;27838;43.858;25.974;2022-12-20T04:51:18;56.72;;;22.42;;
42168;SDS011;27838;43.858;25.974;2022-12-20T04:53:44;41.33;;;20.38;;
42168;SDS011;27838;43.858;25.974;2022-12-20T04:56:14;40.75;;;20.55;;
42168;SDS011;27838;43.858;25.974;2022-12-20T04:58:52;43.65;;;20.15;;
42168;SDS011;27838;43.858;25.974;2022-12-20T05:01:19;44.40;;;21.10;;
42168;SDS011;27838;43.858;25.974;2022-12-20T05:03:46;48.33;;;23.48;;
42168;SDS011;27838;43.858;25.974;2022-12-20T05:06:13;44.70;;;21.98;;
42168;SDS011;27838;43.858;25.974;2022-12-20T05:08:40;43.72;;;21.98;;
42168;SDS011;27838;43.858;25.974;2022-12-20T05:11:07;48.13;;;21.13;;
42168;SDS011;27838;43.858;25.974;2022-12-20T05:13:34;44.45;;;21.67;;
42168;SDS011;27838;43.858;25.974;2022-12-20T05:16:01;45.50;;;20.73;;
42168;SDS011;27838;43.858;25.974;2022-12-20T05:18:28;44.40;;;21.10;;
42168;SDS011;27838;43.858;25.974;2022-12-20T05:20:55;49.03;;;22.33;;
42168;SDS011;27838;43.858;25.974;2022-12-20T05:23:41;46.42;;;21.98;;
42168;SDS011;27838;43.858;25.974;2022-12-20T05:26:31;59.72;;;22.35;;
42168;SDS011;27838;43.858;25.974;2022-12-20T05:29:01;47.50;;;21.55;;
42168;SDS011;27838;43.858;25.974;2022-12-20T05:31:27;49.55;;;24.20;;
42168;SDS011;27838;43.858;25.974;2022-12-20T05:33:54;52.03;;;23.27;;
42168;SDS011;27838;43.858;25.974;2022-12-20T05:36:20;56.97;;;23.50;;
42168;SDS011;27838;43.858;25.974;2022-12-20T05:38:47;66.13;;;25.42;;
42168;SDS011;27838;43.858;25.974;2022-12-20T05:41:13;58.53;;;24.50;;
42168;SDS011;27838;43.858;25.974;2022-12-20T05:43:40;55.33;;;23.92;;
42168;SDS011;27838;43.858;25.974;2022-12-20T05:46:07;61.72;;;24.65;;
42168;SDS011;27838;43.858;25.974;2022-12-20T05:48:33;57.63;;;25.23;;
42168;SDS011;27838;43.858;25.974;2022-12-20T05:51:00;60.33;;;25.73;;
42168;SDS011;27838;43.858;25.974;2022-12-20T05:53:26;72.60;;;31.75;;
42168;SDS011;27838;43.858;25.974;2022-12-20T05:55:53;56.55;;;26.83;;
42168;SDS011;27838;43.858;25.974;2022-12-20T05:58:20;72.70;;;27.65;;
42168;SDS011;27838;43.858;25.974;2022-12-20T06:00:47;54.53;;;25.38;;
42168;SDS011;27838;43.858;25.974;2022-12-20T06:03:14;61.60;;;26.10;;
42168;SDS011;27838;43.858;25.974;2022-12-20T06:05:41;60.75;;;26.50;;
42168;SDS011;27838;43.858;25.974;2022-12-20T06:08:08;49.92;;;23.13;;
42168;SDS011;27838;43.858;25.974;2022-12-20T06:10:35;49.72;;;24.40;;
42168;SDS011;27838;43.858;25.974;2022-12-20T06:13:02;67.05;;;27.00;;
42168;SDS011;27838;43.858;25.974;2022-12-20T06:15:30;45.97;;;22.35;;
42168;SDS011;27838;43.858;25.974;2022-12-20T06:17:57;52.05;;;24.63;;
42168;SDS011;27838;43.858;25.974;2022-12-20T06:20:23;47.67;;;23.08;;
42168;SDS011;27838;43.858;25.974;2022-12-20T06:22:50;46.30;;;23.02;;
42168;SDS011;27838;43.858;25.974;2022-12-20T06:25:17;55.88;;;25.10;;
42168;SDS011;27838;43.858;25.974;2022-12-20T06:27:44;48.10;;;22.27;;
42168;SDS011;27838;43.858;25.974;2022-12-20T06:30:11;56.95;;;23.17;;
42168;SDS011;27838;43.858;25.974;2022-12-20T06:32:38;52.20;;;23.08;;
42168;SDS011;27838;43.858;25.974;2022-12-20T06:35:04;54.90;;;23.73;;
42168;SDS011;27838;43.858;25.974;2022-12-20T06:37:32;62.55;;;24.67;;
42168;SDS011;27838;43.858;25.974;2022-12-20T06:39:58;59.78;;;26.23;;
42168;SDS011;27838;43.858;25.974;2022-12-20T06:42:25;64.20;;;28.10;;
42168;SDS011;27838;43.858;25.974;2022-12-20T06:44:51;58.72;;;26.60;;
42168;SDS011;27838;43.858;25.974;2022-12-20T06:47:18;67.40;;;27.15;;
42168;SDS011;27838;43.858;25.974;2022-12-20T06:49:45;53.63;;;26.20;;
42168;SDS011;27838;43.858;25.974;2022-12-20T06:52:11;64.72;;;28.60;;
42168;SDS011;27838;43.858;25.974;2022-12-20T06:54:38;62.25;;;25.17;;
42168;SDS011;27838;43.858;25.974;2022-12-20T06:57:04;72.47;;;26.88;;
42168;SDS011;27838;43.858;25.974;2022-12-20T06:59:31;59.97;;;26.10;;
42168;SDS011;27838;43.858;25.974;2022-12-20T07:01:59;59.63;;;26.60;;
42168;SDS011;27838;43.858;25.974;2022-12-20T07:04:26;77.20;;;29.83;;
42168;SDS011;27838;43.858;25.974;2022-12-20T07:06:52;65.45;;;24.90;;
42168;SDS011;27838;43.858;25.974;2022-12-20T07:09:19;50.58;;;24.83;;
42168;SDS011;27838;43.858;25.974;2022-12-20T07:11:45;53.85;;;26.27;;
42168;SDS011;27838;43.858;25.974;2022-12-20T07:14:12;54.03;;;25.08;;
42168;SDS011;27838;43.858;25.974;2022-12-20T07:16:39;58.17;;;25.75;;
42168;SDS011;27838;43.858;25.974;2022-12-20T07:19:10;61.70;;;25.83;;
42168;SDS011;27838;43.858;25.974;2022-12-20T07:21:38;61.92;;;26.08;;
42168;SDS011;27838;43.858;25.974;2022-12-20T07:24:05;53.35;;;23.83;;
42168;SDS011;27838;43.858;25.974;2022-12-20T07:26:32;54.58;;;24.02;;
42168;SDS011;27838;43.858;25.974;2022-12-20T07:28:58;57.83;;;26.15;;
42168;SDS011;27838;43.858;25.974;2022-12-20T07:31:25;61.70;;;25.20;;
42168;SDS011;27838;43.858;25.974;2022-12-20T07:33:52;60.88;;;23.92;;
42168;SDS011;27838;43.858;25.974;2022-12-20T07:36:18;55.55;;;25.92;;
42168;SDS011;27838;43.858;25.974;2022-12-20T07:38:45;56.60;;;27.05;;
42168;SDS011;27838;43.858;25.974;2022-12-20T07:41:13;51.55;;;24.13;;
42168;SDS011;27838;43.858;25.974;2022-12-20T07:43:42;55.90;;;26.73;;
42168;SDS011;27838;43.858;25.974;2022-12-20T07:46:09;54.88;;;25.48;;
42168;SDS011;27838;43.858;25.974;2022-12-20T07:48:37;76.85;;;29.45;;
42168;SDS011;27838;43.858;25.974;2022-12-20T07:51:08;64.93;;;29.08;;
42168;SDS011;27838;43.858;25.974;2022-12-20T07:53:40;61.42;;;29.23;;
42168;SDS011;27838;43.858;25.974;2022-12-20T07:56:12;56.70;;;26.95;;
42168;SDS011;27838;43.858;25.974;2022-12-20T07:58:40;56.55;;;27.58;;
42168;SDS011;27838;43.858;25.974;2022-12-20T08:01:08;60.65;;;29.38;;
42168;SDS011;27838;43.858;25.974;2022-12-20T08:03:41;70.90;;;31.17;;
42168;SDS011;27838;43.858;25.974;2022-12-20T08:06:11;66.60;;;29.77;;
42168;SDS011;27838;43.858;25.974;2022-12-20T08:08:39;64.65;;;30.05;;
42168;SDS011;27838;43.858;25.974;2022-12-20T08:11:09;60.35;;;26.83;;
42168;SDS011;27838;43.858;25.974;2022-12-20T08:13:36;65.28;;;28.83;;
42168;SDS011;27838;43.858;25.974;2022-12-20T08:16:03;72.72;;;30.58;;
42168;SDS011;27838;43.858;25.974;2022-12-20T08:18:30;65.00;;;30.52;;
42168;SDS011;27838;43.858;25.974;2022-12-20T08:20:57;62.28;;;29.38;;
42168;SDS011;27838;43.858;25.974;2022-12-20T08:23:25;72.88;;;31.42;;
42168;SDS011;27838;43.858;25.974;2022-12-20T08:25:51;69.38;;;32.22;;
42168;SDS011;27838;43.858;25.974;2022-12-20T08:28:18;66.28;;;30.63;;
42168;SDS011;27838;43.858;25.974;2022-12-20T08:30:44;72.53;;;30.33;;
42168;SDS011;27838;43.858;25.974;2022-12-20T08:33:11;59.25;;;28.92;;
42168;SDS011;27838;43.858;25.974;2022-12-20T08:35:38;61.78;;;28.92;;
42168;SDS011;27838;43.858;25.974;2022-12-20T08:38:04;71.00;;;31.77;;
42168;SDS011;27838;43.858;25.974;2022-12-20T08:40:31;71.88;;;31.30;;
42168;SDS011;27838;43.858;25.974;2022-12-20T08:42:58;62.50;;;30.42;;
42168;SDS011;27838;43.858;25.974;2022-12-20T08:45:24;68.65;;;30.98;;
42168;SDS011;27838;43.858;25.974;2022-12-20T08:47:52;68.32;;;29.70;;
42168;SDS011;27838;43.858;25.974;2022-12-20T08:50:18;64.50;;;30.60;;
42168;SDS011;27838;43.858;25.974;2022-12-20T08:52:45;65.38;;;30.00;;
42168;SDS011;27838;43.858;25.974;2022-12-20T08:55:11;67.85;;;30.90;;
42168;SDS011;27838;43.858;25.974;2022-12-20T08:57:38;89.03;;;33.50;;
42168;SDS011;27838;43.858;25.974;2022-12-20T09:00:05;72.93;;;30.92;;
42168;SDS011;27838;43.858;25.974;2022-12-20T09:02:33;72.10;;;31.65;;
42168;SDS011;27838;43.858;25.974;2022-12-20T09:05:01;70.00;;;33.35;;
42168;SDS011;27838;43.858;25.974;2022-12-20T09:07:28;71.28;;;32.03;;
42168;SDS011;27838;43.858;25.974;2022-12-20T09:09:55;74.22;;;32.38;;
42168;SDS011;27838;43.858;25.974;2022-12-20T09:12:21;75.35;;;34.03;;
42168;SDS011;27838;43.858;25.974;2022-12-20T09:14:48;67.95;;;31.48;;
42168;SDS011;27838;43.858;25.974;2022-12-20T09:17:15;77.28;;;33.58;;
42168;SDS011;27838;43.858;25.974;2022-12-20T09:19:41;68.15;;;33.03;;
42168;SDS011;27838;43.858;25.974;2022-12-20T09:22:08;68.55;;;32.20;;
42168;SDS011;27838;43.858;25.974;2022-12-20T09:24:36;78.57;;;35.00;;
42168;SDS011;27838;43.858;25.974;2022-12-20T09:27:02;71.65;;;35.58;;
42168;SDS011;27838;43.858;25.974;2022-12-20T09:29:29;78.10;;;33.92;;
42168;SDS011;27838;43.858;25.974;2022-12-20T09:31:55;66.35;;;33.33;;
42168;SDS011;27838;43.858;25.974;2022-12-20T09:34:22;68.82;;;31.85;;
42168;SDS011;27838;43.858;25.974;2022-12-20T09:36:48;73.97;;;34.78;;
42168;SDS011;27838;43.858;25.974;2022-12-20T09:39:15;80.03;;;33.88;;
42168;SDS011;27838;43.858;25.974;2022-12-20T09:41:42;77.32;;;35.10;;
42168;SDS011;27838;43.858;25.974;2022-12-20T09:44:13;78.00;;;34.58;;
42168;SDS011;27838;43.858;25.974;2022-12-20T09:46:46;95.43;;;37.10;;
42168;SDS011;27838;43.858;25.974;2022-12-20T09:49:19;79.35;;;35.15;;
42168;SDS011;27838;43.858;25.974;2022-12-20T10:00:21;56.08;;;25.80;;
42168;SDS011;27838;43.858;25.974;2022-12-20T10:02:48;66.05;;;33.22;;
42168;SDS011;27838;43.858;25.974;2022-12-20T10:06:04;73.75;;;31.30;;
42168;SDS011;27838;43.858;25.974;2022-12-20T10:08:15;66.22;;;30.90;;
42168;SDS011;27838;43.858;25.974;2022-12-20T10:22:38;59.33;;;29.33;;
42168;SDS011;27838;43.858;25.974;2022-12-20T10:25:16;62.15;;;29.35;;
42168;SDS011;27838;43.858;25.974;2022-12-20T10:27:45;58.25;;;25.90;;
42168;SDS011;27838;43.858;25.974;2022-12-20T10:30:15;56.22;;;27.58;;
42168;SDS011;27838;43.858;25.974;2022-12-20T10:32:48;66.20;;;29.15;;
42168;SDS011;27838;43.858;25.974;2022-12-20T10:35:28;63.60;;;28.10;;
42168;SDS011;27838;43.858;25.974;2022-12-20T10:40:32;54.22;;;28.30;;
42168;SDS011;27838;43.858;25.974;2022-12-20T10:43:01;61.28;;;29.13;;
42168;SDS011;27838;43.858;25.974;2022-12-20T10:45:36;71.80;;;30.42;;
42168;SDS011;27838;43.858;25.974;2022-12-20T10:48:06;69.38;;;31.67;;
42168;SDS011;27838;43.858;25.974;2022-12-20T10:50:56;57.97;;;27.50;;
42168;SDS011;27838;43.858;25.974;2022-12-20T10:53:26;67.35;;;31.48;;
42168;SDS011;27838;43.858;25.974;2022-12-20T10:55:54;65.15;;;30.30;;
42168;SDS011;27838;43.858;25.974;2022-12-20T10:58:54;58.58;;;29.58;;
42168;SDS011;27838;43.858;25.974;2022-12-20T11:01:27;67.30;;;31.52;;
42168;SDS011;27838;43.858;25.974;2022-12-20T11:04:03;61.38;;;28.67;;
42168;SDS011;27838;43.858;25.974;2022-12-20T11:09:21;59.67;;;28.33;;
42168;SDS011;27838;43.858;25.974;2022-12-20T11:12:11;55.80;;;29.00;;
42168;SDS011;27838;43.858;25.974;2022-12-20T11:14:40;58.25;;;29.67;;
42168;SDS011;27838;43.858;25.974;2022-12-20T11:25:35;59.88;;;27.98;;
42168;SDS011;27838;43.858;25.974;2022-12-20T11:31:00;57.83;;;28.80;;
42168;SDS011;27838;43.858;25.974;2022-12-20T11:36:24;70.90;;;30.67;;
42168;SDS011;27838;43.858;25.974;2022-12-20T11:44:15;63.22;;;31.38;;
42168;SDS011;27838;43.858;25.974;2022-12-20T11:49:44;62.90;;;31.23;;
42168;SDS011;27838;43.858;25.974;2022-12-20T11:52:34;65.43;;;30.05;;
42168;SDS011;27838;43.858;25.974;2022-12-20T11:57:51;80.25;;;36.10;;
42168;SDS011;27838;43.858;25.974;2022-12-20T12:00:24;78.53;;;35.10;;
42168;SDS011;27838;43.858;25.974;2022-12-20T12:02:53;63.42;;;33.28;;
42168;SDS011;27838;43.858;25.974;2022-12-20T12:05:45;71.07;;;32.88;;
42168;SDS011;27838;43.858;25.974;2022-12-20T12:08:18;59.15;;;29.00;;
42168;SDS011;27838;43.858;25.974;2022-12-20T12:10:57;60.30;;;29.90;;
42168;SDS011;27838;43.858;25.974;2022-12-20T12:13:30;63.67;;;30.13;;
42168;SDS011;27838;43.858;25.974;2022-12-20T12:16:02;98.60;;;32.78;;
42168;SDS011;27838;43.858;25.974;2022-12-20T12:18:34;70.25;;;32.10;;
42168;SDS011;27838;43.858;25.974;2022-12-20T12:24:14;77.07;;;33.17;;
42168;SDS011;27838;43.858;25.974;2022-12-20T12:27:07;86.30;;;37.50;;
42168;SDS011;27838;43.858;25.974;2022-12-20T12:29:43;78.38;;;37.17;;
42168;SDS011;27838;43.858;25.974;2022-12-20T12:32:13;84.18;;;37.13;;
42168;SDS011;27838;43.858;25.974;2022-12-20T12:34:56;74.03;;;35.20;;
42168;SDS011;27838;43.858;25.974;2022-12-20T12:40:24;76.03;;;36.17;;
42168;SDS011;27838;43.858;25.974;2022-12-20T12:51:11;83.20;;;38.67;;
42168;SDS011;27838;43.858;25.974;2022-12-20T12:53:41;81.70;;;36.40;;
42168;SDS011;27838;43.858;25.974;2022-12-20T12:59:09;83.15;;;37.85;;
42168;SDS011;27838;43.858;25.974;2022-12-20T13:09:59;80.35;;;37.00;;
42168;SDS011;27838;43.858;25.974;2022-12-20T13:17:51;78.47;;;34.53;;
42168;SDS011;27838;43.858;25.974;2022-12-20T13:20:36;73.63;;;33.80;;
42168;SDS011;27838;43.858;25.974;2022-12-20T13:25:37;73.35;;;32.80;;
42168;SDS011;27838;43.858;25.974;2022-12-20T13:30:47;68.80;;;32.53;;
42168;SDS011;27838;43.858;25.974;2022-12-20T13:38:47;69.78;;;32.10;;
42168;SDS011;27838;43.858;25.974;2022-12-20T13:41:24;71.50;;;33.73;;
42168;SDS011;27838;43.858;25.974;2022-12-20T13:49:52;82.45;;;32.50;;
42168;SDS011;27838;43.858;25.974;2022-12-20T13:52:32;64.78;;;30.75;;
42168;SDS011;27838;43.858;25.974;2022-12-20T13:55:05;66.80;;;32.38;;
42168;SDS011;27838;43.858;25.974;2022-12-20T13:57:43;64.55;;;31.38;;
42168;SDS011;27838;43.858;25.974;2022-12-20T14:00:14;76.82;;;33.03;;
42168;SDS011;27838;43.858;25.974;2022-12-20T14:02:43;71.35;;;32.97;;
42168;SDS011;27838;43.858;25.974;2022-12-20T14:05:14;74.80;;;33.47;;
42168;SDS011;27838;43.858;25.974;2022-12-20T14:07:49;61.63;;;31.73;;
42168;SDS011;27838;43.858;25.974;2022-12-20T14:10:22;62.78;;;32.42;;
42168;SDS011;27838;43.858;25.974;2022-12-20T14:12:52;72.47;;;33.17;;
42168;SDS011;27838;43.858;25.974;2022-12-20T14:15:26;74.25;;;32.63;;
42168;SDS011;27838;43.858;25.974;2022-12-20T14:17:55;67.57;;;31.35;;
42168;SDS011;27838;43.858;25.974;2022-12-20T14:22:52;64.53;;;31.60;;
42168;SDS011;27838;43.858;25.974;2022-12-20T14:25:33;73.67;;;29.50;;
42168;SDS011;27838;43.858;25.974;2022-12-20T14:31:02;78.72;;;29.52;;
42168;SDS011;27838;43.858;25.974;2022-12-20T14:33:37;65.32;;;26.75;;
42168;SDS011;27838;43.858;25.974;2022-12-20T14:36:26;75.85;;;28.02;;
42168;SDS011;27838;43.858;25.974;2022-12-20T14:38:52;67.53;;;27.30;;
42168;SDS011;27838;43.858;25.974;2022-12-20T14:41:28;60.47;;;28.58;;
42168;SDS011;27838;43.858;25.974;2022-12-20T14:44:12;57.95;;;26.60;;
42168;SDS011;27838;43.858;25.974;2022-12-20T14:51:45;58.97;;;26.40;;
42168;SDS011;27838;43.858;25.974;2022-12-20T14:54:15;55.30;;;27.67;;
42168;SDS011;27838;43.858;25.974;2022-12-20T14:56:45;58.72;;;27.45;;
42168;SDS011;27838;43.858;25.974;2022-12-20T14:59:15;58.33;;;26.95;;
42168;SDS011;27838;43.858;25.974;2022-12-20T15:01:43;55.78;;;28.55;;
42168;SDS011;27838;43.858;25.974;2022-12-20T15:06:59;53.53;;;26.77;;
42168;SDS011;27838;43.858;25.974;2022-12-20T15:09:27;59.70;;;26.55;;
42168;SDS011;27838;43.858;25.974;2022-12-20T15:11:54;60.58;;;28.65;;
42168;SDS011;27838;43.858;25.974;2022-12-20T15:14:33;65.90;;;28.27;;
42168;SDS011;27838;43.858;25.974;2022-12-20T15:19:34;58.20;;;26.80;;
42168;SDS011;27838;43.858;25.974;2022-12-20T15:22:01;63.10;;;27.55;;
42168;SDS011;27838;43.858;25.974;2022-12-20T15:24:28;76.75;;;28.98;;
42168;SDS011;27838;43.858;25.974;2022-12-20T15:26:54;66.88;;;28.73;;
42168;SDS011;27838;43.858;25.974;2022-12-20T15:29:22;62.35;;;30.88;;
42168;SDS011;27838;43.858;25.974;2022-12-20T15:31:51;72.97;;;34.58;;
42168;SDS011;27838;43.858;25.974;2022-12-20T15:37:01;75.53;;;32.92;;
42168;SDS011;27838;43.858;25.974;2022-12-20T15:39:29;82.32;;;33.03;;
42168;SDS011;27838;43.858;25.974;2022-12-20T15:41:58;67.25;;;31.15;;
42168;SDS011;27838;43.858;25.974;2022-12-20T15:44:27;68.25;;;31.05;;
42168;SDS011;27838;43.858;25.974;2022-12-20T15:46:55;75.38;;;34.78;;
42168;SDS011;27838;43.858;25.974;2022-12-20T15:49:23;72.68;;;33.72;;
42168;SDS011;27838;43.858;25.974;2022-12-20T15:51:51;64.55;;;31.88;;
42168;SDS011;27838;43.858;25.974;2022-12-20T15:56:52;53.72;;;27.23;;
42168;SDS011;27838;43.858;25.974;2022-12-20T15:59:20;67.13;;;28.27;;
42168;SDS011;27838;43.858;25.974;2022-12-20T16:01:47;54.13;;;26.38;;
42168;SDS011;27838;43.858;25.974;2022-12-20T16:04:15;56.00;;;28.70;;
42168;SDS011;27838;43.858;25.974;2022-12-20T16:06:46;72.45;;;34.58;;
42168;SDS011;27838;43.858;25.974;2022-12-20T16:09:14;62.30;;;29.83;;
42168;SDS011;27838;43.858;25.974;2022-12-20T16:11:42;65.45;;;31.50;;
42168;SDS011;27838;43.858;25.974;2022-12-20T16:14:15;54.45;;;28.13;;
42168;SDS011;27838;43.858;25.974;2022-12-20T16:16:45;59.05;;;29.10;;
42168;SDS011;27838;43.858;25.974;2022-12-20T16:19:14;59.28;;;28.83;;
42168;SDS011;27838;43.858;25.974;2022-12-20T16:21:50;69.18;;;31.15;;
42168;SDS011;27838;43.858;25.974;2022-12-20T16:24:18;55.03;;;28.52;;
42168;SDS011;27838;43.858;25.974;2022-12-20T16:26:47;56.47;;;28.40;;
42168;SDS011;27838;43.858;25.974;2022-12-20T16:29:14;57.15;;;28.05;;
42168;SDS011;27838;43.858;25.974;2022-12-20T16:31:41;62.33;;;29.13;;
42168;SDS011;27838;43.858;25.974;2022-12-20T16:34:12;65.03;;;28.40;;
42168;SDS011;27838;43.858;25.974;2022-12-20T16:36:40;53.20;;;28.55;;
42168;SDS011;27838;43.858;25.974;2022-12-20T16:39:08;57.90;;;28.00;;
42168;SDS011;27838;43.858;25.974;2022-12-20T16:41:35;56.50;;;27.92;;
42168;SDS011;27838;43.858;25.974;2022-12-20T16:44:04;56.67;;;28.77;;